sensor_id;sensor_type;location;lat;lon;timestamp;temperature;humidity
42683;DHT22;28293;50.930;3.464;2022-09-30T00:01:37;8.50;90.50
42683;DHT22;28293;50.930;3.464;2022-09-30T00:04:09;8.50;90.70
42683;DHT22;28293;50.930;3.464;2022-09-30T00:06:37;8.50;90.60
42683;DHT22;28293;50.930;3.464;2022-09-30T00:09:03;8.40;90.60
42683;DHT22;28293;50.930;3.464;2022-09-30T00:11:32;8.40;90.60
42683;DHT22;28293;50.930;3.464;2022-09-30T00:13:59;8.40;90.60
42683;DHT22;28293;50.930;3.464;2022-09-30T00:16:28;8.40;90.70
42683;DHT22;28293;50.930;3.464;2022-09-30T00:18:56;8.40;90.70
42683;DHT22;28293;50.930;3.464;2022-09-30T00:21:22;8.40;90.70
42683;DHT22;28293;50.930;3.464;2022-09-30T00:23:48;8.30;90.80
42683;DHT22;28293;50.930;3.464;2022-09-30T00:26:17;8.30;90.80
42683;DHT22;28293;50.930;3.464;2022-09-30T00:28:43;8.20;90.90
42683;DHT22;28293;50.930;3.464;2022-09-30T00:31:14;8.20;90.90
42683;DHT22;28293;50.930;3.464;2022-09-30T00:33:41;8.20;90.90
42683;DHT22;28293;50.930;3.464;2022-09-30T00:36:07;8.20;91.00
42683;DHT22;28293;50.930;3.464;2022-09-30T00:38:32;8.20;91.10
42683;DHT22;28293;50.930;3.464;2022-09-30T00:41:00;8.20;91.20
42683;DHT22;28293;50.930;3.464;2022-09-30T00:43:46;8.20;91.10
42683;DHT22;28293;50.930;3.464;2022-09-30T00:48:43;8.10;90.80
42683;DHT22;28293;50.930;3.464;2022-09-30T00:51:10;8.10;90.80
42683;DHT22;28293;50.930;3.464;2022-09-30T00:53:46;8.00;90.80
42683;DHT22;28293;50.930;3.464;2022-09-30T00:56:18;8.00;90.90
42683;DHT22;28293;50.930;3.464;2022-09-30T00:58:49;8.00;90.90
42683;DHT22;28293;50.930;3.464;2022-09-30T01:01:18;8.00;91.00
42683;DHT22;28293;50.930;3.464;2022-09-30T01:06:11;8.00;91.20
42683;DHT22;28293;50.930;3.464;2022-09-30T01:08:38;8.00;91.20
42683;DHT22;28293;50.930;3.464;2022-09-30T01:11:04;8.00;91.30
42683;DHT22;28293;50.930;3.464;2022-09-30T01:13:33;8.00;91.20
42683;DHT22;28293;50.930;3.464;2022-09-30T01:16:21;7.90;91.20
42683;DHT22;28293;50.930;3.464;2022-09-30T01:22:25;7.90;91.30
42683;DHT22;28293;50.930;3.464;2022-09-30T01:31:05;7.90;91.40
42683;DHT22;28293;50.930;3.464;2022-09-30T01:34:06;7.90;91.40
42683;DHT22;28293;50.930;3.464;2022-09-30T01:44:58;7.80;91.40
42683;DHT22;28293;50.930;3.464;2022-09-30T01:47:45;7.80;91.40
42683;DHT22;28293;50.930;3.464;2022-09-30T01:56:11;7.60;90.90
42683;DHT22;28293;50.930;3.464;2022-09-30T01:58:53;7.50;91.00
42683;DHT22;28293;50.930;3.464;2022-09-30T02:01:25;7.60;91.20
42683;DHT22;28293;50.930;3.464;2022-09-30T02:04:00;7.50;91.10
42683;DHT22;28293;50.930;3.464;2022-09-30T02:06:34;7.50;91.10
42683;DHT22;28293;50.930;3.464;2022-09-30T02:09:15;7.50;91.20
42683;DHT22;28293;50.930;3.464;2022-09-30T02:11:46;7.50;91.30
42683;DHT22;28293;50.930;3.464;2022-09-30T02:14:17;7.50;91.40
42683;DHT22;28293;50.930;3.464;2022-09-30T02:16:45;7.50;91.50
42683;DHT22;28293;50.930;3.464;2022-09-30T02:19:34;7.50;91.50
42683;DHT22;28293;50.930;3.464;2022-09-30T02:22:16;7.50;91.60
42683;DHT22;28293;50.930;3.464;2022-09-30T02:24:43;7.50;91.70
42683;DHT22;28293;50.930;3.464;2022-09-30T02:27:29;7.50;91.60
42683;DHT22;28293;50.930;3.464;2022-09-30T02:29:58;7.50;91.60
42683;DHT22;28293;50.930;3.464;2022-09-30T02:32:39;7.40;91.60
42683;DHT22;28293;50.930;3.464;2022-09-30T02:35:13;7.40;91.70
42683;DHT22;28293;50.930;3.464;2022-09-30T02:37:44;7.50;91.70
42683;DHT22;28293;50.930;3.464;2022-09-30T02:40:17;7.50;91.80
42683;DHT22;28293;50.930;3.464;2022-09-30T02:42:44;7.40;91.80
42683;DHT22;28293;50.930;3.464;2022-09-30T02:45:15;7.50;91.80
42683;DHT22;28293;50.930;3.464;2022-09-30T02:53:21;7.40;92.00
42683;DHT22;28293;50.930;3.464;2022-09-30T02:56:45;7.40;91.90
42683;DHT22;28293;50.930;3.464;2022-09-30T02:58:58;7.40;91.90
42683;DHT22;28293;50.930;3.464;2022-09-30T03:01:24;7.40;91.90
42683;DHT22;28293;50.930;3.464;2022-09-30T03:03:56;7.40;92.00
42683;DHT22;28293;50.930;3.464;2022-09-30T03:06:23;7.40;92.00
42683;DHT22;28293;50.930;3.464;2022-09-30T03:08:50;7.40;92.00
42683;DHT22;28293;50.930;3.464;2022-09-30T03:11:19;7.30;92.00
42683;DHT22;28293;50.930;3.464;2022-09-30T03:30:08;7.20;91.90
42683;DHT22;28293;50.930;3.464;2022-09-30T03:38:52;7.20;92.00
42683;DHT22;28293;50.930;3.464;2022-09-30T03:41:38;7.30;92.10
42683;DHT22;28293;50.930;3.464;2022-09-30T03:46:59;7.30;92.20
42683;DHT22;28293;50.930;3.464;2022-09-30T03:49:34;7.20;92.20
42683;DHT22;28293;50.930;3.464;2022-09-30T03:52:05;7.30;92.30
42683;DHT22;28293;50.930;3.464;2022-09-30T03:54:31;7.20;92.40
42683;DHT22;28293;50.930;3.464;2022-09-30T03:56:57;7.20;92.40
42683;DHT22;28293;50.930;3.464;2022-09-30T03:59:27;7.20;92.30
42683;DHT22;28293;50.930;3.464;2022-09-30T04:01:54;7.20;92.40
42683;DHT22;28293;50.930;3.464;2022-09-30T04:04:21;7.20;92.50
42683;DHT22;28293;50.930;3.464;2022-09-30T04:06:47;7.20;92.50
42683;DHT22;28293;50.930;3.464;2022-09-30T04:09:12;7.20;92.60
42683;DHT22;28293;50.930;3.464;2022-09-30T04:11:38;7.20;92.70
42683;DHT22;28293;50.930;3.464;2022-09-30T04:14:04;7.20;92.60
42683;DHT22;28293;50.930;3.464;2022-09-30T04:16:30;7.30;92.70
42683;DHT22;28293;50.930;3.464;2022-09-30T04:18:56;7.30;92.60
42683;DHT22;28293;50.930;3.464;2022-09-30T04:21:22;7.20;92.60
42683;DHT22;28293;50.930;3.464;2022-09-30T04:23:48;7.20;92.60
42683;DHT22;28293;50.930;3.464;2022-09-30T04:26:15;7.10;92.70
42683;DHT22;28293;50.930;3.464;2022-09-30T04:28:41;7.20;92.70
42683;DHT22;28293;50.930;3.464;2022-09-30T04:31:09;7.20;92.80
42683;DHT22;28293;50.930;3.464;2022-09-30T04:33:36;7.20;92.80
42683;DHT22;28293;50.930;3.464;2022-09-30T04:36:02;7.10;92.80
42683;DHT22;28293;50.930;3.464;2022-09-30T04:38:28;7.10;92.80
42683;DHT22;28293;50.930;3.464;2022-09-30T04:40:56;7.10;92.90
42683;DHT22;28293;50.930;3.464;2022-09-30T04:43:22;7.10;92.90
42683;DHT22;28293;50.930;3.464;2022-09-30T04:45:49;7.20;92.90
42683;DHT22;28293;50.930;3.464;2022-09-30T04:48:16;7.20;92.90
42683;DHT22;28293;50.930;3.464;2022-09-30T04:50:42;7.20;93.00
42683;DHT22;28293;50.930;3.464;2022-09-30T04:53:10;7.10;92.90
42683;DHT22;28293;50.930;3.464;2022-09-30T04:55:36;7.10;92.90
42683;DHT22;28293;50.930;3.464;2022-09-30T04:58:02;7.10;92.90
42683;DHT22;28293;50.930;3.464;2022-09-30T05:00:29;7.10;92.90
42683;DHT22;28293;50.930;3.464;2022-09-30T05:02:54;7.10;93.00
42683;DHT22;28293;50.930;3.464;2022-09-30T05:05:20;7.10;93.00
42683;DHT22;28293;50.930;3.464;2022-09-30T05:07:46;7.10;93.00
42683;DHT22;28293;50.930;3.464;2022-09-30T05:10:12;7.10;93.00
42683;DHT22;28293;50.930;3.464;2022-09-30T05:12:38;7.10;93.00
42683;DHT22;28293;50.930;3.464;2022-09-30T05:15:07;7.10;93.00
42683;DHT22;28293;50.930;3.464;2022-09-30T05:17:34;7.10;93.00
42683;DHT22;28293;50.930;3.464;2022-09-30T05:19:59;7.10;93.00
42683;DHT22;28293;50.930;3.464;2022-09-30T05:22:26;7.10;93.00
42683;DHT22;28293;50.930;3.464;2022-09-30T05:24:52;7.10;93.10
42683;DHT22;28293;50.930;3.464;2022-09-30T05:27:19;7.10;93.00
42683;DHT22;28293;50.930;3.464;2022-09-30T05:29:44;7.10;93.10
42683;DHT22;28293;50.930;3.464;2022-09-30T05:32:10;7.10;93.10
42683;DHT22;28293;50.930;3.464;2022-09-30T05:34:36;7.10;93.10
42683;DHT22;28293;50.930;3.464;2022-09-30T05:37:07;7.10;93.10
42683;DHT22;28293;50.930;3.464;2022-09-30T05:39:34;7.10;93.10
42683;DHT22;28293;50.930;3.464;2022-09-30T05:41:59;7.10;93.10
42683;DHT22;28293;50.930;3.464;2022-09-30T05:44:25;7.10;93.20
42683;DHT22;28293;50.930;3.464;2022-09-30T05:46:51;7.10;93.10
42683;DHT22;28293;50.930;3.464;2022-09-30T05:49:16;7.10;93.10
42683;DHT22;28293;50.930;3.464;2022-09-30T05:51:42;7.10;93.10
42683;DHT22;28293;50.930;3.464;2022-09-30T05:54:09;7.10;93.20
42683;DHT22;28293;50.930;3.464;2022-09-30T05:56:35;7.20;93.10
42683;DHT22;28293;50.930;3.464;2022-09-30T05:59:03;7.10;93.00
42683;DHT22;28293;50.930;3.464;2022-09-30T06:01:29;7.20;93.10
42683;DHT22;28293;50.930;3.464;2022-09-30T06:03:55;7.20;93.10
42683;DHT22;28293;50.930;3.464;2022-09-30T06:06:20;7.20;93.00
42683;DHT22;28293;50.930;3.464;2022-09-30T06:08:46;7.20;93.10
42683;DHT22;28293;50.930;3.464;2022-09-30T06:11:14;7.30;93.10
42683;DHT22;28293;50.930;3.464;2022-09-30T06:13:41;7.30;93.00
42683;DHT22;28293;50.930;3.464;2022-09-30T06:16:08;7.30;93.10
42683;DHT22;28293;50.930;3.464;2022-09-30T06:18:34;7.40;93.10
42683;DHT22;28293;50.930;3.464;2022-09-30T06:21:03;7.50;93.20
42683;DHT22;28293;50.930;3.464;2022-09-30T06:23:30;7.60;93.30
42683;DHT22;28293;50.930;3.464;2022-09-30T06:25:57;7.80;93.30
42683;DHT22;28293;50.930;3.464;2022-09-30T06:28:23;8.10;93.20
42683;DHT22;28293;50.930;3.464;2022-09-30T06:30:49;8.40;93.10
42683;DHT22;28293;50.930;3.464;2022-09-30T06:33:15;8.70;92.50
42683;DHT22;28293;50.930;3.464;2022-09-30T06:35:42;8.70;91.80
42683;DHT22;28293;50.930;3.464;2022-09-30T06:38:10;8.60;91.30
42683;DHT22;28293;50.930;3.464;2022-09-30T06:40:36;8.60;91.00
42683;DHT22;28293;50.930;3.464;2022-09-30T06:43:03;8.60;90.80
42683;DHT22;28293;50.930;3.464;2022-09-30T06:45:29;8.60;90.80
42683;DHT22;28293;50.930;3.464;2022-09-30T06:47:58;8.60;90.90
42683;DHT22;28293;50.930;3.464;2022-09-30T06:50:24;8.60;90.80
42683;DHT22;28293;50.930;3.464;2022-09-30T06:52:50;8.60;90.90
42683;DHT22;28293;50.930;3.464;2022-09-30T06:55:17;8.70;90.90
42683;DHT22;28293;50.930;3.464;2022-09-30T06:57:44;8.70;90.90
42683;DHT22;28293;50.930;3.464;2022-09-30T07:00:11;8.70;90.70
42683;DHT22;28293;50.930;3.464;2022-09-30T07:02:36;8.80;90.80
42683;DHT22;28293;50.930;3.464;2022-09-30T07:05:04;8.80;90.70
42683;DHT22;28293;50.930;3.464;2022-09-30T07:07:30;8.80;90.70
42683;DHT22;28293;50.930;3.464;2022-09-30T07:09:59;8.80;90.80
42683;DHT22;28293;50.930;3.464;2022-09-30T07:12:25;8.90;90.90
42683;DHT22;28293;50.930;3.464;2022-09-30T07:14:51;8.90;90.90
42683;DHT22;28293;50.930;3.464;2022-09-30T07:17:17;9.10;91.00
42683;DHT22;28293;50.930;3.464;2022-09-30T07:19:43;9.10;91.10
42683;DHT22;28293;50.930;3.464;2022-09-30T07:22:09;9.20;91.10
42683;DHT22;28293;50.930;3.464;2022-09-30T07:24:55;9.40;91.10
42683;DHT22;28293;50.930;3.464;2022-09-30T07:27:22;9.50;90.90
42683;DHT22;28293;50.930;3.464;2022-09-30T07:29:48;9.70;90.60
42683;DHT22;28293;50.930;3.464;2022-09-30T07:32:13;9.80;90.40
42683;DHT22;28293;50.930;3.464;2022-09-30T07:34:40;10.00;90.00
42683;DHT22;28293;50.930;3.464;2022-09-30T07:37:09;10.10;89.60
42683;DHT22;28293;50.930;3.464;2022-09-30T07:39:37;10.10;89.50
42683;DHT22;28293;50.930;3.464;2022-09-30T07:42:03;10.30;89.10
42683;DHT22;28293;50.930;3.464;2022-09-30T07:44:30;10.40;88.90
42683;DHT22;28293;50.930;3.464;2022-09-30T07:46:56;10.50;88.60
42683;DHT22;28293;50.930;3.464;2022-09-30T07:49:23;10.70;88.40
42683;DHT22;28293;50.930;3.464;2022-09-30T07:51:54;10.80;88.10
42683;DHT22;28293;50.930;3.464;2022-09-30T07:54:23;11.00;87.60
42683;DHT22;28293;50.930;3.464;2022-09-30T07:56:50;11.20;87.10
42683;DHT22;28293;50.930;3.464;2022-09-30T07:59:17;11.40;86.70
42683;DHT22;28293;50.930;3.464;2022-09-30T08:01:43;11.60;86.10
42683;DHT22;28293;50.930;3.464;2022-09-30T08:04:10;11.80;85.70
42683;DHT22;28293;50.930;3.464;2022-09-30T08:06:42;12.00;85.00
42683;DHT22;28293;50.930;3.464;2022-09-30T08:09:10;12.20;84.20
42683;DHT22;28293;50.930;3.464;2022-09-30T08:11:37;12.50;83.80
42683;DHT22;28293;50.930;3.464;2022-09-30T08:14:03;12.60;82.80
42683;DHT22;28293;50.930;3.464;2022-09-30T08:16:29;12.80;82.20
42683;DHT22;28293;50.930;3.464;2022-09-30T08:18:57;13.00;81.80
42683;DHT22;28293;50.930;3.464;2022-09-30T08:21:23;13.10;81.00
42683;DHT22;28293;50.930;3.464;2022-09-30T08:23:49;13.30;80.40
42683;DHT22;28293;50.930;3.464;2022-09-30T08:26:15;13.40;80.30
42683;DHT22;28293;50.930;3.464;2022-09-30T08:28:42;13.60;79.10
42683;DHT22;28293;50.930;3.464;2022-09-30T08:31:19;13.70;79.10
42683;DHT22;28293;50.930;3.464;2022-09-30T08:33:45;13.80;78.80
42683;DHT22;28293;50.930;3.464;2022-09-30T08:36:17;14.00;78.20
42683;DHT22;28293;50.930;3.464;2022-09-30T08:38:42;14.10;78.40
42683;DHT22;28293;50.930;3.464;2022-09-30T08:41:22;14.20;77.30
42683;DHT22;28293;50.930;3.464;2022-09-30T08:51:56;14.80;76.10
42683;DHT22;28293;50.930;3.464;2022-09-30T08:54:26;14.90;75.30
42683;DHT22;28293;50.930;3.464;2022-09-30T08:56:54;15.00;75.60
42683;DHT22;28293;50.930;3.464;2022-09-30T09:04:45;15.40;74.60
42683;DHT22;28293;50.930;3.464;2022-09-30T09:10:29;15.50;73.80
42683;DHT22;28293;50.930;3.464;2022-09-30T09:20:56;16.10;72.60
42683;DHT22;28293;50.930;3.464;2022-09-30T09:23:30;16.10;72.40
42683;DHT22;28293;50.930;3.464;2022-09-30T09:25:57;16.10;71.00
42683;DHT22;28293;50.930;3.464;2022-09-30T09:28:36;16.20;70.50
42683;DHT22;28293;50.930;3.464;2022-09-30T09:31:12;16.10;70.40
42683;DHT22;28293;50.930;3.464;2022-09-30T09:33:39;16.30;71.00
42683;DHT22;28293;50.930;3.464;2022-09-30T09:38:54;16.50;70.40
42683;DHT22;28293;50.930;3.464;2022-09-30T09:41:41;16.50;70.30
42683;DHT22;28293;50.930;3.464;2022-09-30T09:44:36;16.60;70.80
42683;DHT22;28293;50.930;3.464;2022-09-30T09:47:12;16.80;68.70
42683;DHT22;28293;50.930;3.464;2022-09-30T09:49:59;16.80;68.90
42683;DHT22;28293;50.930;3.464;2022-09-30T09:55:11;17.10;67.50
42683;DHT22;28293;50.930;3.464;2022-09-30T09:57:37;17.30;68.00
42683;DHT22;28293;50.930;3.464;2022-09-30T10:00:10;17.30;66.30
42683;DHT22;28293;50.930;3.464;2022-09-30T10:05:34;17.40;66.10
42683;DHT22;28293;50.930;3.464;2022-09-30T10:08:17;17.50;65.80
42683;DHT22;28293;50.930;3.464;2022-09-30T10:10:54;17.40;64.70
42683;DHT22;28293;50.930;3.464;2022-09-30T10:13:28;17.60;65.00
42683;DHT22;28293;50.930;3.464;2022-09-30T10:15:57;17.60;63.80
42683;DHT22;28293;50.930;3.464;2022-09-30T10:20:55;17.40;63.70
42683;DHT22;28293;50.930;3.464;2022-09-30T10:23:32;17.60;63.10
42683;DHT22;28293;50.930;3.464;2022-09-30T10:28:57;17.80;62.10
42683;DHT22;28293;50.930;3.464;2022-09-30T10:31:27;17.70;62.20
42683;DHT22;28293;50.930;3.464;2022-09-30T10:36:37;18.00;62.40
42683;DHT22;28293;50.930;3.464;2022-09-30T10:39:31;17.70;63.70
42683;DHT22;28293;50.930;3.464;2022-09-30T10:42:07;18.00;63.80
42683;DHT22;28293;50.930;3.464;2022-09-30T10:47:08;18.40;61.30
42683;DHT22;28293;50.930;3.464;2022-09-30T10:52:22;17.90;61.10
42683;DHT22;28293;50.930;3.464;2022-09-30T10:54:53;17.80;59.60
42683;DHT22;28293;50.930;3.464;2022-09-30T10:57:28;17.70;60.00
42683;DHT22;28293;50.930;3.464;2022-09-30T11:00:05;17.70;59.50
42683;DHT22;28293;50.930;3.464;2022-09-30T11:03:00;17.70;60.40
42683;DHT22;28293;50.930;3.464;2022-09-30T11:05:29;17.60;60.50
42683;DHT22;28293;50.930;3.464;2022-09-30T11:11:02;18.10;58.70
42683;DHT22;28293;50.930;3.464;2022-09-30T11:22:51;18.10;59.00
42683;DHT22;28293;50.930;3.464;2022-09-30T11:25:25;17.90;57.20
42683;DHT22;28293;50.930;3.464;2022-09-30T11:28:13;18.10;58.20
42683;DHT22;28293;50.930;3.464;2022-09-30T11:33:47;18.60;57.70
42683;DHT22;28293;50.930;3.464;2022-09-30T11:42:05;18.20;56.90
42683;DHT22;28293;50.930;3.464;2022-09-30T11:44:33;18.00;58.40
42683;DHT22;28293;50.930;3.464;2022-09-30T11:47:16;18.20;58.60
42683;DHT22;28293;50.930;3.464;2022-09-30T11:53:07;17.90;58.90
42683;DHT22;28293;50.930;3.464;2022-09-30T11:58:25;17.50;58.00
42683;DHT22;28293;50.930;3.464;2022-09-30T12:01:21;17.70;58.10
42683;DHT22;28293;50.930;3.464;2022-09-30T12:03:53;18.00;59.00
42683;DHT22;28293;50.930;3.464;2022-09-30T12:06:35;18.50;58.40
42683;DHT22;28293;50.930;3.464;2022-09-30T12:09:17;18.70;55.90
42683;DHT22;28293;50.930;3.464;2022-09-30T12:14:26;18.90;54.90
42683;DHT22;28293;50.930;3.464;2022-09-30T12:16:55;18.70;55.50
42683;DHT22;28293;50.930;3.464;2022-09-30T12:19:36;18.60;56.20
42683;DHT22;28293;50.930;3.464;2022-09-30T12:22:13;18.40;56.20
42683;DHT22;28293;50.930;3.464;2022-09-30T12:24:43;18.30;57.00
42683;DHT22;28293;50.930;3.464;2022-09-30T12:27:18;18.30;57.10
42683;DHT22;28293;50.930;3.464;2022-09-30T12:29:54;18.20;57.60
42683;DHT22;28293;50.930;3.464;2022-09-30T12:47:15;18.90;52.60
42683;DHT22;28293;50.930;3.464;2022-09-30T12:49:44;18.90;54.00
42683;DHT22;28293;50.930;3.464;2022-09-30T12:52:17;18.90;54.20
42683;DHT22;28293;50.930;3.464;2022-09-30T12:54:51;19.00;54.20
42683;DHT22;28293;50.930;3.464;2022-09-30T12:57:28;19.30;53.50
42683;DHT22;28293;50.930;3.464;2022-09-30T13:00:01;19.10;52.00
42683;DHT22;28293;50.930;3.464;2022-09-30T13:02:35;19.00;51.20
42683;DHT22;28293;50.930;3.464;2022-09-30T13:13:23;19.40;53.30
42683;DHT22;28293;50.930;3.464;2022-09-30T13:15:50;19.30;52.80
42683;DHT22;28293;50.930;3.464;2022-09-30T13:23:41;18.90;52.40
42683;DHT22;28293;50.930;3.464;2022-09-30T13:28:53;18.90;53.30
42683;DHT22;28293;50.930;3.464;2022-09-30T13:31:23;18.70;53.40
42683;DHT22;28293;50.930;3.464;2022-09-30T13:37:02;18.70;53.40
42683;DHT22;28293;50.930;3.464;2022-09-30T13:42:26;18.60;53.80
42683;DHT22;28293;50.930;3.464;2022-09-30T13:45:15;18.60;53.60
42683;DHT22;28293;50.930;3.464;2022-09-30T13:48:01;18.60;55.10
42683;DHT22;28293;50.930;3.464;2022-09-30T13:50:48;18.60;54.20
42683;DHT22;28293;50.930;3.464;2022-09-30T13:53:26;18.40;52.90
42683;DHT22;28293;50.930;3.464;2022-09-30T13:55:52;18.30;53.50
42683;DHT22;28293;50.930;3.464;2022-09-30T14:07:23;18.90;52.30
42683;DHT22;28293;50.930;3.464;2022-09-30T14:23:43;18.50;50.90
42683;DHT22;28293;50.930;3.464;2022-09-30T14:26:40;18.50;51.60
42683;DHT22;28293;50.930;3.464;2022-09-30T14:31:46;18.30;51.50
42683;DHT22;28293;50.930;3.464;2022-09-30T14:34:12;18.20;51.80
42683;DHT22;28293;50.930;3.464;2022-09-30T14:36:39;18.10;51.70
42683;DHT22;28293;50.930;3.464;2022-09-30T14:39:08;18.10;52.40
42683;DHT22;28293;50.930;3.464;2022-09-30T14:41:53;18.00;51.70
42683;DHT22;28293;50.930;3.464;2022-09-30T14:44:20;17.90;53.00
42683;DHT22;28293;50.930;3.464;2022-09-30T14:46:48;17.80;53.30
42683;DHT22;28293;50.930;3.464;2022-09-30T14:49:20;17.60;53.30
42683;DHT22;28293;50.930;3.464;2022-09-30T14:51:53;17.70;54.00
42683;DHT22;28293;50.930;3.464;2022-09-30T14:54:24;17.70;53.00
42683;DHT22;28293;50.930;3.464;2022-09-30T14:56:54;17.80;53.90
42683;DHT22;28293;50.930;3.464;2022-09-30T14:59:29;17.70;53.30
42683;DHT22;28293;50.930;3.464;2022-09-30T15:01:59;17.80;53.50
42683;DHT22;28293;50.930;3.464;2022-09-30T15:04:30;17.70;52.80
42683;DHT22;28293;50.930;3.464;2022-09-30T15:06:58;17.70;52.90
42683;DHT22;28293;50.930;3.464;2022-09-30T15:09:37;17.70;53.20
42683;DHT22;28293;50.930;3.464;2022-09-30T15:12:19;17.70;53.80
42683;DHT22;28293;50.930;3.464;2022-09-30T15:17:29;17.50;52.60
42683;DHT22;28293;50.930;3.464;2022-09-30T15:19:56;17.50;53.10
42683;DHT22;28293;50.930;3.464;2022-09-30T15:22:24;17.50;53.50
42683;DHT22;28293;50.930;3.464;2022-09-30T15:24:52;17.40;53.90
42683;DHT22;28293;50.930;3.464;2022-09-30T15:27:23;17.30;53.60
42683;DHT22;28293;50.930;3.464;2022-09-30T15:32:40;17.30;54.40
42683;DHT22;28293;50.930;3.464;2022-09-30T15:35:12;17.40;54.40
42683;DHT22;28293;50.930;3.464;2022-09-30T15:37:39;17.40;54.60
42683;DHT22;28293;50.930;3.464;2022-09-30T15:40:14;17.30;54.70
42683;DHT22;28293;50.930;3.464;2022-09-30T15:43:01;17.30;56.20
42683;DHT22;28293;50.930;3.464;2022-09-30T15:45:36;17.20;55.80
42683;DHT22;28293;50.930;3.464;2022-09-30T15:50:54;17.00;56.20
42683;DHT22;28293;50.930;3.464;2022-09-30T15:53:23;17.00;55.50
42683;DHT22;28293;50.930;3.464;2022-09-30T15:55:57;17.00;55.90
42683;DHT22;28293;50.930;3.464;2022-09-30T16:03:39;17.00;55.50
42683;DHT22;28293;50.930;3.464;2022-09-30T16:06:12;16.90;55.60
42683;DHT22;28293;50.930;3.464;2022-09-30T16:08:45;16.90;55.90
42683;DHT22;28293;50.930;3.464;2022-09-30T16:11:36;16.80;56.10
42683;DHT22;28293;50.930;3.464;2022-09-30T16:14:08;16.80;56.40
42683;DHT22;28293;50.930;3.464;2022-09-30T16:16:36;16.80;56.50
42683;DHT22;28293;50.930;3.464;2022-09-30T16:19:03;16.70;56.60
42683;DHT22;28293;50.930;3.464;2022-09-30T16:21:43;16.70;57.10
42683;DHT22;28293;50.930;3.464;2022-09-30T16:26:52;16.60;56.90
42683;DHT22;28293;50.930;3.464;2022-09-30T16:29:18;16.60;56.90
42683;DHT22;28293;50.930;3.464;2022-09-30T16:31:46;16.60;57.00
42683;DHT22;28293;50.930;3.464;2022-09-30T16:36:44;16.50;57.30
42683;DHT22;28293;50.930;3.464;2022-09-30T16:39:12;16.50;57.20
42683;DHT22;28293;50.930;3.464;2022-09-30T16:41:39;16.50;57.60
42683;DHT22;28293;50.930;3.464;2022-09-30T16:44:05;16.40;57.40
42683;DHT22;28293;50.930;3.464;2022-09-30T16:46:31;16.40;58.00
42683;DHT22;28293;50.930;3.464;2022-09-30T16:48:58;16.30;57.80
42683;DHT22;28293;50.930;3.464;2022-09-30T16:51:26;16.30;58.50
42683;DHT22;28293;50.930;3.464;2022-09-30T16:53:52;16.20;59.10
42683;DHT22;28293;50.930;3.464;2022-09-30T16:56:18;16.10;59.30
42683;DHT22;28293;50.930;3.464;2022-09-30T16:58:45;16.10;59.40
42683;DHT22;28293;50.930;3.464;2022-09-30T17:01:18;16.00;59.10
42683;DHT22;28293;50.930;3.464;2022-09-30T17:03:44;15.90;59.30
42683;DHT22;28293;50.930;3.464;2022-09-30T17:06:11;15.90;59.60
42683;DHT22;28293;50.930;3.464;2022-09-30T17:08:37;15.90;59.60
42683;DHT22;28293;50.930;3.464;2022-09-30T17:11:03;15.80;60.00
42683;DHT22;28293;50.930;3.464;2022-09-30T17:13:28;15.70;60.00
42683;DHT22;28293;50.930;3.464;2022-09-30T17:15:55;15.60;60.80
42683;DHT22;28293;50.930;3.464;2022-09-30T17:18:21;15.60;60.40
42683;DHT22;28293;50.930;3.464;2022-09-30T17:20:48;15.60;60.10
42683;DHT22;28293;50.930;3.464;2022-09-30T17:23:20;15.60;60.40
42683;DHT22;28293;50.930;3.464;2022-09-30T17:25:46;15.60;60.80
42683;DHT22;28293;50.930;3.464;2022-09-30T17:28:12;15.50;60.40
42683;DHT22;28293;50.930;3.464;2022-09-30T17:30:39;15.60;60.40
42683;DHT22;28293;50.930;3.464;2022-09-30T17:33:06;15.50;60.50
42683;DHT22;28293;50.930;3.464;2022-09-30T17:35:38;15.40;61.10
42683;DHT22;28293;50.930;3.464;2022-09-30T17:38:12;15.40;61.50
42683;DHT22;28293;50.930;3.464;2022-09-30T17:40:38;15.40;61.40
42683;DHT22;28293;50.930;3.464;2022-09-30T17:43:22;15.40;61.60
42683;DHT22;28293;50.930;3.464;2022-09-30T17:45:49;15.30;61.80
42683;DHT22;28293;50.930;3.464;2022-09-30T17:48:16;15.40;61.90
42683;DHT22;28293;50.930;3.464;2022-09-30T17:50:44;15.30;62.30
42683;DHT22;28293;50.930;3.464;2022-09-30T17:53:11;15.30;62.00
42683;DHT22;28293;50.930;3.464;2022-09-30T17:55:42;15.30;62.30
42683;DHT22;28293;50.930;3.464;2022-09-30T17:58:11;15.20;62.80
42683;DHT22;28293;50.930;3.464;2022-09-30T18:00:37;15.10;62.60
42683;DHT22;28293;50.930;3.464;2022-09-30T18:03:04;15.10;62.40
42683;DHT22;28293;50.930;3.464;2022-09-30T18:05:31;15.10;62.60
42683;DHT22;28293;50.930;3.464;2022-09-30T18:07:57;15.10;62.70
42683;DHT22;28293;50.930;3.464;2022-09-30T18:10:23;15.10;62.40
42683;DHT22;28293;50.930;3.464;2022-09-30T18:12:51;15.10;62.40
42683;DHT22;28293;50.930;3.464;2022-09-30T18:15:18;15.10;62.70
42683;DHT22;28293;50.930;3.464;2022-09-30T18:17:45;15.10;62.60
42683;DHT22;28293;50.930;3.464;2022-09-30T18:20:11;15.10;62.60
42683;DHT22;28293;50.930;3.464;2022-09-30T18:22:37;15.10;62.60
42683;DHT22;28293;50.930;3.464;2022-09-30T18:25:03;15.10;62.60
42683;DHT22;28293;50.930;3.464;2022-09-30T18:27:48;15.10;62.50
42683;DHT22;28293;50.930;3.464;2022-09-30T18:30:14;15.00;62.70
42683;DHT22;28293;50.930;3.464;2022-09-30T18:32:40;15.00;63.10
42683;DHT22;28293;50.930;3.464;2022-09-30T18:35:06;15.00;63.30
42683;DHT22;28293;50.930;3.464;2022-09-30T18:37:37;15.00;63.60
42683;DHT22;28293;50.930;3.464;2022-09-30T18:40:03;15.00;63.70
42683;DHT22;28293;50.930;3.464;2022-09-30T18:42:29;14.90;63.70
42683;DHT22;28293;50.930;3.464;2022-09-30T18:44:55;15.00;64.00
42683;DHT22;28293;50.930;3.464;2022-09-30T18:47:20;14.90;64.10
42683;DHT22;28293;50.930;3.464;2022-09-30T18:49:46;14.90;64.30
42683;DHT22;28293;50.930;3.464;2022-09-30T18:52:12;14.90;64.40
42683;DHT22;28293;50.930;3.464;2022-09-30T18:54:37;14.90;64.60
42683;DHT22;28293;50.930;3.464;2022-09-30T18:57:03;14.90;64.60
42683;DHT22;28293;50.930;3.464;2022-09-30T18:59:29;14.90;65.00
42683;DHT22;28293;50.930;3.464;2022-09-30T19:01:55;14.80;64.90
42683;DHT22;28293;50.930;3.464;2022-09-30T19:04:22;14.80;65.10
42683;DHT22;28293;50.930;3.464;2022-09-30T19:06:48;14.80;65.60
42683;DHT22;28293;50.930;3.464;2022-09-30T19:09:14;14.80;65.90
42683;DHT22;28293;50.930;3.464;2022-09-30T19:11:41;14.70;65.80
42683;DHT22;28293;50.930;3.464;2022-09-30T19:14:13;14.80;65.90
42683;DHT22;28293;50.930;3.464;2022-09-30T19:16:40;14.70;65.80
42683;DHT22;28293;50.930;3.464;2022-09-30T19:19:07;14.80;65.80
42683;DHT22;28293;50.930;3.464;2022-09-30T19:21:37;14.80;65.80
42683;DHT22;28293;50.930;3.464;2022-09-30T19:24:05;14.80;65.80
42683;DHT22;28293;50.930;3.464;2022-09-30T19:26:33;14.80;66.50
42683;DHT22;28293;50.930;3.464;2022-09-30T19:29:01;14.80;66.80
42683;DHT22;28293;50.930;3.464;2022-09-30T19:31:27;14.80;67.70
42683;DHT22;28293;50.930;3.464;2022-09-30T19:33:54;14.70;68.40